createdAt,value
2018-11-05T00:01:50.296Z,96696.08
2018-11-05T00:04:21.161Z,96695.23
2018-11-05T00:06:52.496Z,96703.83
2018-11-05T00:09:23.686Z,96684.88
2018-11-05T00:11:54.541Z,96675.86
2018-11-05T00:14:25.675Z,96690.91
2018-11-05T00:16:56.578Z,96683.59
2018-11-05T00:19:27.521Z,96689.18
2018-11-05T00:21:59.259Z,96681.86
2018-11-05T00:24:30.357Z,96685.31
2018-11-05T00:27:01.245Z,96693.50
2018-11-05T00:29:32.410Z,96703.84
2018-11-05T00:32:03.855Z,96700.42
2018-11-05T00:34:34.816Z,96704.70
2018-11-05T00:37:06.396Z,96702.56
2018-11-05T00:39:37.314Z,96700.81
2018-11-05T00:42:08.229Z,96693.06
2018-11-05T00:44:39.618Z,96682.73
2018-11-05T00:47:11.436Z,96686.20
2018-11-05T00:49:42.257Z,96681.89
2018-11-05T00:52:13.168Z,96681.91
2018-11-05T00:54:44.701Z,96673.27
2018-11-05T00:57:15.866Z,96679.33
2018-11-05T00:59:47.045Z,96684.05
2018-11-05T01:02:19.065Z,96696.56
2018-11-05T01:04:50.495Z,96694.80
2018-11-05T01:07:21.510Z,96686.19
2018-11-05T01:09:52.777Z,96691.80
2018-11-05T01:12:23.811Z,96674.57
2018-11-05T01:14:56.031Z,96680.17
2018-11-05T01:17:26.895Z,96685.34
2018-11-05T01:19:57.858Z,96685.78
2018-11-05T01:22:28.806Z,96683.22
2018-11-05T01:25:00.103Z,96665.13
2018-11-05T01:27:31.288Z,96669.84
2018-11-05T01:30:02.247Z,96667.28
2018-11-05T01:32:33.183Z,96672.02
2018-11-05T01:35:04.414Z,96676.34
2018-11-05T01:37:35.271Z,96672.05
2018-11-05T01:40:07.899Z,96669.86
2018-11-05T01:42:39.194Z,96656.08
2018-11-05T01:45:12.164Z,96649.20
2018-11-05T01:47:44.143Z,96644.09
2018-11-05T01:50:16.716Z,96647.53
2018-11-05T01:52:47.604Z,96639.36
2018-11-05T01:55:19.527Z,96640.67
2018-11-05T01:57:50.439Z,96642.39
2018-11-05T02:00:21.339Z,96643.66
2018-11-05T02:02:52.260Z,96645.38
2018-11-05T02:05:23.578Z,96650.58
2018-11-05T02:07:54.558Z,96641.95
2018-11-05T02:10:25.640Z,96644.97
2018-11-05T02:12:56.766Z,96638.05
2018-11-05T02:15:28.093Z,96632.47
2018-11-05T02:17:58.992Z,96632.06
2018-11-05T02:20:30.336Z,96628.62
2018-11-05T02:23:01.289Z,96634.67
2018-11-05T02:25:32.227Z,96629.92
2018-11-05T02:28:03.252Z,96637.26
2018-11-05T02:30:34.451Z,96644.15
2018-11-05T02:33:05.522Z,96633.80
2018-11-05T02:35:36.485Z,96643.28
2018-11-05T02:38:07.507Z,96637.26
2018-11-05T02:40:38.427Z,96615.31
2018-11-05T02:43:09.715Z,96611.84
2018-11-05T02:45:40.602Z,96610.18
2018-11-05T02:48:11.592Z,96613.17
2018-11-05T02:50:42.583Z,96625.24
2018-11-05T02:53:13.894Z,96616.62
2018-11-05T02:55:44.963Z,96617.94
2018-11-05T02:58:15.858Z,96617.09
2018-11-05T03:00:46.816Z,96618.39
2018-11-05T03:03:17.922Z,96619.64
2018-11-05T03:05:48.771Z,96612.33
2018-11-05T03:08:19.739Z,96603.74
2018-11-05T03:10:50.639Z,96595.59
2018-11-05T03:13:21.576Z,96592.63
2018-11-05T03:15:52.505Z,96608.95
2018-11-05T03:18:23.433Z,96612.39
2018-11-05T03:20:54.385Z,96608.97
2018-11-05T03:23:25.780Z,96611.95
2018-11-05T03:25:56.776Z,96621.85
2018-11-05T03:28:27.657Z,96611.09
2018-11-05T03:30:58.859Z,96612.34
2018-11-05T03:33:29.838Z,96614.08
2018-11-05T03:36:00.970Z,96615.83
2018-11-05T03:38:31.708Z,96606.34
2018-11-05T03:41:02.669Z,96604.63
2018-11-05T03:43:33.646Z,96599.46
2018-11-05T03:46:04.574Z,96585.69
2018-11-05T03:48:35.518Z,96589.14
2018-11-05T03:51:06.772Z,96595.19
2018-11-05T03:53:37.737Z,96591.31
2018-11-05T03:56:09.631Z,96592.59
2018-11-05T03:58:40.532Z,96597.38
2018-11-05T04:01:11.834Z,96590.48
2018-11-05T04:03:42.834Z,96589.22
2018-11-05T04:06:13.674Z,96583.20
2018-11-05T04:08:44.657Z,96582.34
2018-11-05T04:11:15.561Z,96565.13
2018-11-05T04:13:47.506Z,96568.17
2018-11-05T04:16:18.479Z,96572.45
2018-11-05T04:18:50.004Z,96550.09
2018-11-05T04:21:21.305Z,96548.38
2018-11-05T04:23:52.315Z,96554.00
2018-11-05T04:26:23.525Z,96554.83
2018-11-05T04:28:54.443Z,96555.70
2018-11-05T04:31:25.704Z,96559.12
2018-11-05T04:33:57.040Z,96559.12
2018-11-05T04:36:28.365Z,96564.30
2018-11-05T04:38:59.311Z,96571.17
2018-11-05T04:41:30.695Z,96572.04
2018-11-05T04:44:02.285Z,96570.75
2018-11-05T04:46:33.401Z,96571.59
2018-11-05T04:49:04.328Z,96575.44
2018-11-05T04:51:35.266Z,96569.44
2018-11-05T04:54:06.755Z,96575.45
2018-11-05T04:56:37.690Z,96570.30
2018-11-05T04:59:09.184Z,96563.84
2018-11-05T05:01:40.205Z,96564.69
2018-11-05T05:04:11.233Z,96558.67
2018-11-05T05:06:42.435Z,96562.09
2018-11-05T05:09:13.892Z,96559.09
2018-11-05T05:11:45.142Z,96552.22
2018-11-05T05:14:16.363Z,96554.38
2018-11-05T05:16:47.832Z,96559.09
2018-11-05T05:19:19.370Z,96550.52
2018-11-05T05:21:50.638Z,96558.66
2018-11-05T05:24:21.682Z,96559.11
2018-11-05T05:54:33.241Z,96568.17
2018-11-05T05:57:04.424Z,96583.61
2018-11-05T05:59:35.367Z,96586.63
2018-11-05T06:02:06.507Z,96585.76
2018-11-05T06:04:37.694Z,96572.89
2018-11-05T06:07:09.164Z,96568.14
2018-11-05T06:09:40.294Z,96562.56
2018-11-05T06:12:11.156Z,96566.01
2018-11-05T06:14:42.762Z,96563.01
2018-11-05T06:17:13.543Z,96566.85
2018-11-05T06:19:44.758Z,96560.43
2018-11-05T06:22:15.990Z,96572.46
2018-11-05T06:24:46.830Z,96572.47
2018-11-05T06:27:17.693Z,96572.48
2018-11-05T06:29:48.590Z,96557.85
2018-11-05T06:32:19.493Z,96552.25
2018-11-05T06:34:50.944Z,96558.29
2018-11-05T06:37:22.374Z,96556.97
2018-11-05T06:39:53.239Z,96566.03
2018-11-05T06:42:24.072Z,96569.87
2018-11-05T06:44:54.932Z,96566.44
2018-11-05T06:47:25.745Z,96572.44
2018-11-05T06:49:56.610Z,96573.30
2018-11-05T06:52:27.468Z,96569.42
2018-11-05T06:54:58.324Z,96579.76
2018-11-05T06:57:29.211Z,96588.75
2018-11-05T07:00:00.013Z,96589.62
2018-11-05T07:02:31.255Z,96593.50
2018-11-05T07:05:02.114Z,96586.59
2018-11-05T07:07:33.474Z,96585.75
2018-11-05T07:10:04.422Z,96574.14
2018-11-05T07:12:35.307Z,96587.45
2018-11-05T07:15:06.949Z,96591.30
2018-11-05T07:17:37.894Z,96584.87
2018-11-05T07:20:12.374Z,96584.88
2018-11-05T07:22:43.783Z,96584.88
2018-11-05T07:25:15.643Z,96586.16
2018-11-05T07:27:46.921Z,96583.17
2018-11-05T07:30:22.344Z,96577.13
2018-11-05T07:32:54.560Z,96587.45
2018-11-05T07:35:25.472Z,96560.32
2018-11-05T07:37:56.338Z,96572.39
2018-11-05T07:40:27.244Z,96570.23
2018-11-05T07:42:58.125Z,96570.20
2018-11-05T07:45:29.315Z,96580.07
2018-11-05T07:48:00.470Z,96577.93
2018-11-05T07:50:31.658Z,96573.60
2018-11-05T07:53:03.028Z,96566.69
2018-11-05T07:55:33.935Z,96563.70
2018-11-05T07:58:05.086Z,96573.14
2018-11-05T08:00:53.305Z,96572.23
2018-11-05T08:03:24.405Z,96558.84
2018-11-05T08:05:55.685Z,96554.91
2018-11-05T08:08:26.669Z,96556.19
2018-11-05T08:10:57.762Z,96547.53
2018-11-05T08:13:28.672Z,96548.39
2018-11-05T08:16:00.296Z,96538.90
2018-11-05T08:18:31.152Z,96546.19
2018-11-05T08:21:02.007Z,96538.02
2018-11-05T08:23:32.875Z,96539.72
2018-11-05T08:26:03.739Z,96539.67
2018-11-05T08:28:34.864Z,96534.85
2018-11-05T08:31:06.638Z,96536.11
2018-11-05T08:33:37.811Z,96538.27
2018-11-05T08:36:08.969Z,96542.98
2018-11-05T08:38:39.851Z,96543.02
2018-11-05T08:41:10.987Z,96551.20
2018-11-05T08:43:41.896Z,96539.93
2018-11-05T08:46:13.019Z,96539.06
2018-11-05T08:48:43.887Z,96533.83
2018-11-05T08:51:15.135Z,96528.67
2018-11-05T08:53:45.685Z,96526.48
2018-11-05T08:56:16.515Z,96509.28
2018-11-05T08:58:47.663Z,96510.13
2018-11-05T09:01:19.214Z,96501.50
2018-11-05T09:03:51.174Z,96497.15
2018-11-05T09:06:22.037Z,96511.73
2018-11-05T09:08:53.312Z,96517.84
2018-11-05T09:11:24.516Z,96521.27
2018-11-05T09:13:55.204Z,96529.02
2018-11-05T09:16:26.383Z,96518.59
2018-11-05T09:18:57.526Z,96510.43
2018-11-05T09:21:28.443Z,96518.57
2018-11-05T09:23:59.693Z,96519.52
2018-11-05T09:26:30.807Z,96523.34
2018-11-05T09:29:01.785Z,96513.88
2018-11-05T09:31:33.065Z,96516.00
2018-11-05T09:34:04.289Z,96514.33
2018-11-05T09:36:35.456Z,96528.94
2018-11-05T09:39:08.343Z,96525.87
2018-11-05T09:41:39.228Z,96530.23
2018-11-05T09:44:10.411Z,96525.47
2018-11-05T09:46:41.260Z,96519.48
2018-11-05T09:49:12.168Z,96511.27
2018-11-05T09:51:43.093Z,96509.98
2018-11-05T09:54:13.942Z,96497.45
2018-11-05T09:56:45.352Z,96512.92
2018-11-05T09:59:16.294Z,96515.48
2018-11-05T10:01:47.160Z,96512.00
2018-11-05T10:04:18.145Z,96507.23
2018-11-05T10:06:49.430Z,96509.72
2018-11-05T10:09:20.350Z,96514.45
2018-11-05T10:11:51.168Z,96506.58
2018-11-05T10:14:22.038Z,96503.38
2018-11-05T10:16:53.430Z,96497.34
2018-11-05T10:19:24.308Z,96501.66
2018-11-05T10:21:57.983Z,96495.62
2018-11-05T10:24:29.181Z,96501.61
2018-11-05T10:27:00.529Z,96498.82
2018-11-05T10:29:31.477Z,96478.88
2018-11-05T10:32:02.553Z,96485.14
2018-11-05T10:34:33.418Z,96484.22
2018-11-05T10:37:04.296Z,96484.58
2018-11-05T10:39:54.047Z,96481.59
2018-11-05T10:42:25.223Z,96482.52
2018-11-05T10:44:56.403Z,96481.66
2018-11-05T10:47:27.561Z,96477.80
2018-11-05T10:49:59.016Z,96467.41
2018-11-05T10:52:30.160Z,96467.41
2018-11-05T10:55:01.114Z,96476.91
2018-11-05T11:00:03.269Z,96454.98
2018-11-05T11:02:41.313Z,96450.48
2018-11-05T11:05:12.383Z,96444.63
2018-11-05T11:07:43.332Z,96431.70
2018-11-05T11:10:14.221Z,96438.16
2018-11-05T11:12:45.273Z,96433.58
2018-11-05T11:15:16.395Z,96423.09
2018-11-05T11:17:47.185Z,96426.21
2018-11-05T11:20:18.073Z,96422.31
2018-11-05T11:22:49.199Z,96419.41
2018-11-05T11:25:20.208Z,96421.23
2018-11-05T11:27:51.181Z,96416.45
2018-11-05T11:30:22.326Z,96416.33
2018-11-05T11:32:53.691Z,96424.02
2018-11-05T11:35:24.592Z,96426.41
2018-11-05T11:37:55.463Z,96422.95
2018-11-05T11:40:26.340Z,96409.19
2018-11-05T11:42:57.186Z,96407.20
2018-11-05T11:45:28.058Z,96402.80
2018-11-05T11:47:58.992Z,96395.82
2018-11-05T11:50:29.878Z,96389.27
2018-11-05T11:53:01.081Z,96385.81
2018-11-05T11:55:31.955Z,96381.42
2018-11-05T11:58:02.819Z,96382.72
2018-11-05T12:00:33.971Z,96380.55
2018-11-05T12:03:04.831Z,96377.61
2018-11-05T12:05:35.989Z,96379.13
2018-11-05T12:08:07.076Z,96377.70
2018-11-05T12:10:37.964Z,96371.25
2018-11-05T12:13:08.845Z,96358.09
2018-11-05T12:15:39.761Z,96353.59
2018-11-05T12:18:10.665Z,96339.94
2018-11-05T12:20:41.540Z,96336.09
2018-11-05T12:23:12.411Z,96336.92
2018-11-05T12:25:43.646Z,96344.84
2018-11-05T12:28:14.504Z,96338.38
2018-11-05T12:30:45.367Z,96349.38
2018-11-05T12:33:16.465Z,96342.03
2018-11-05T12:35:47.319Z,96341.25
2018-11-05T12:38:18.441Z,96340.31
2018-11-05T12:40:49.329Z,96330.52
2018-11-05T12:43:20.175Z,96327.17
2018-11-05T12:45:51.289Z,96336.23
2018-11-05T12:48:22.261Z,96346.55
2018-11-05T12:50:53.073Z,96350.75
2018-11-05T12:53:24.184Z,96344.58
2018-11-05T12:55:55.100Z,96344.52
2018-11-05T12:58:25.899Z,96351.31
2018-11-05T13:03:28.148Z,96350.33
2018-11-05T13:05:58.998Z,96351.33
2018-11-05T13:08:29.850Z,96358.39
2018-11-05T13:11:00.960Z,96348.70
2018-11-05T13:13:31.833Z,96349.48
2018-11-05T13:16:02.681Z,96356.19
2018-11-05T13:18:33.808Z,96351.77
2018-11-05T13:21:04.652Z,96349.38
2018-11-05T13:23:38.955Z,96346.58
2018-11-05T13:26:09.843Z,96335.78
2018-11-05T13:28:41.242Z,96343.77
2018-11-05T13:31:12.110Z,96341.91
2018-11-05T13:33:42.946Z,96332.05
2018-11-05T13:36:13.812Z,96329.08
2018-11-05T13:38:44.989Z,96327.53
2018-11-05T13:41:16.257Z,96324.93
2018-11-05T13:43:47.098Z,96323.59
2018-11-05T13:46:18.203Z,96315.00
2018-11-05T13:48:49.677Z,96326.57
2018-11-05T13:51:19.918Z,96326.40
2018-11-05T13:53:51.261Z,96315.69
2018-11-05T13:56:22.142Z,96323.64
2018-11-05T13:58:52.997Z,96332.16
2018-11-05T14:01:24.194Z,96324.36
2018-11-05T14:03:55.133Z,96317.30
2018-11-05T14:06:25.998Z,96322.92
2018-11-05T14:08:57.191Z,96320.70
2018-11-05T14:11:28.105Z,96322.23
2018-11-05T14:13:58.967Z,96323.45
2018-11-05T14:16:29.907Z,96319.56
2018-11-05T14:19:00.623Z,96323.58
2018-11-05T14:21:31.457Z,96321.80
2018-11-05T14:24:02.385Z,96333.12
2018-11-05T14:26:33.262Z,96332.20
2018-11-05T14:29:04.557Z,96318.80
2018-11-05T14:31:35.088Z,96318.83
2018-11-05T14:34:06.241Z,96319.37
2018-11-05T14:36:37.188Z,96317.45
2018-11-05T14:39:13.176Z,96331.48
2018-11-05T14:41:44.315Z,96330.49
2018-11-05T14:44:15.248Z,96327.77
2018-11-05T14:46:46.104Z,96325.10
2018-11-05T14:49:16.956Z,96324.81
2018-11-05T14:51:48.055Z,96338.70
2018-11-05T14:54:19.031Z,96343.04
2018-11-05T14:56:49.872Z,96339.90
2018-11-05T14:59:20.808Z,96338.03
2018-11-05T15:02:10.316Z,96327.91
2018-11-05T15:04:41.139Z,96327.59
2018-11-05T15:07:12.041Z,96334.91
2018-11-05T15:09:42.857Z,96335.02
2018-11-05T15:12:13.968Z,96337.31
2018-11-05T15:14:45.412Z,96334.05
2018-11-05T15:17:16.551Z,96341.41
2018-11-05T15:19:47.819Z,96348.44
2018-11-05T15:22:18.459Z,96350.63
2018-11-05T15:24:49.610Z,96347.62
2018-11-05T15:27:20.457Z,96346.36
2018-11-05T15:29:51.349Z,96339.94
2018-11-05T15:32:22.294Z,96350.42
2018-11-05T15:34:53.197Z,96351.22
2018-11-05T15:37:24.600Z,96354.09
2018-11-05T15:39:55.421Z,96342.69
2018-11-05T15:42:26.555Z,96344.95
2018-11-05T15:44:57.407Z,96341.89
2018-11-05T15:47:28.228Z,96343.30
2018-11-05T15:49:59.089Z,96337.47
2018-11-05T15:52:30.456Z,96343.27
2018-11-05T15:55:01.336Z,96340.84
2018-11-05T15:57:32.434Z,96344.42
2018-11-05T16:00:03.417Z,96343.25
2018-11-05T16:02:34.257Z,96341.47
2018-11-05T16:05:05.396Z,96350.00
2018-11-05T16:07:36.230Z,96347.02
2018-11-05T16:10:09.039Z,96353.91
2018-11-05T16:12:40.026Z,96350.86
2018-11-05T16:15:11.965Z,96344.39
2018-11-05T16:17:43.107Z,96351.30
2018-11-05T16:20:19.033Z,96347.08
2018-11-05T16:22:51.043Z,96354.50
2018-11-05T16:25:21.936Z,96361.52
2018-11-05T16:27:52.790Z,96356.34
2018-11-05T16:30:23.790Z,96358.09
2018-11-05T16:32:54.564Z,96364.61
2018-11-05T16:35:25.500Z,96359.58
2018-11-05T16:37:56.623Z,96360.03
2018-11-05T16:40:27.531Z,96362.70
2018-11-05T16:42:58.604Z,96364.83
2018-11-05T16:45:29.466Z,96361.33
2018-11-05T16:48:00.297Z,96358.69
2018-11-05T16:50:31.197Z,96359.55
2018-11-05T16:53:02.573Z,96358.17
2018-11-05T16:55:33.704Z,96365.80
2018-11-05T16:58:04.884Z,96373.01
2018-11-05T17:00:35.858Z,96375.88
2018-11-05T17:03:07.422Z,96371.50
2018-11-05T17:05:38.238Z,96371.02
2018-11-05T17:08:09.082Z,96371.56
2018-11-05T17:10:39.964Z,96376.95
2018-11-05T17:13:11.117Z,96369.01
2018-11-05T17:15:42.216Z,96369.64
2018-11-05T17:18:13.892Z,96374.14
2018-11-05T17:20:46.649Z,96374.32
2018-11-05T17:23:17.491Z,96373.86
2018-11-05T17:25:48.374Z,96382.92
2018-11-05T17:28:19.599Z,96381.06
2018-11-05T17:30:50.460Z,96370.17
2018-11-05T17:33:21.588Z,96377.45
2018-11-05T17:35:52.444Z,96375.17
2018-11-05T17:38:23.302Z,96375.58
2018-11-05T17:40:54.423Z,96379.48
2018-11-05T17:43:25.921Z,96383.45
2018-11-05T17:45:56.761Z,96385.78
2018-11-05T17:48:27.637Z,96394.16
2018-11-05T17:50:58.855Z,96389.16
2018-11-05T17:53:30.314Z,96395.23
2018-11-05T17:56:01.449Z,96404.30
2018-11-05T17:58:32.426Z,96401.34
2018-11-05T18:01:03.808Z,96400.58
2018-11-05T18:03:34.780Z,96397.20
2018-11-05T18:06:05.745Z,96410.20
2018-11-05T18:08:36.717Z,96403.41
2018-11-05T18:11:07.930Z,96404.34
2018-11-05T18:13:39.309Z,96406.09
2018-11-05T18:16:10.837Z,96401.77
2018-11-05T18:18:42.116Z,96402.69
2018-11-05T18:21:14.127Z,96407.41
2018-11-05T18:23:45.399Z,96407.38
2018-11-05T18:26:16.921Z,96407.84
2018-11-05T18:28:48.162Z,96402.69
2018-11-05T18:31:19.068Z,96401.77
2018-11-05T18:33:49.955Z,96395.77
2018-11-05T18:36:21.195Z,96390.22
2018-11-05T18:38:52.171Z,96401.88
2018-11-05T18:41:24.012Z,96399.28
2018-11-05T18:43:55.152Z,96405.24
2018-11-05T18:46:26.178Z,96402.64
2018-11-05T18:48:57.587Z,96400.09
2018-11-05T18:51:28.470Z,96405.28
2018-11-05T18:53:59.377Z,96403.13
2018-11-05T18:56:30.302Z,96406.62
2018-11-05T18:59:01.500Z,96407.11
2018-11-05T19:01:32.334Z,96418.30
2018-11-05T19:04:03.545Z,96423.44
2018-11-05T19:06:34.731Z,96427.71
2018-11-05T19:09:07.735Z,96429.87
2018-11-05T19:11:38.931Z,96426.85
2018-11-05T19:14:09.958Z,96428.58
2018-11-05T19:16:41.213Z,96428.20
2018-11-05T19:19:12.474Z,96428.67
2018-11-05T19:21:43.466Z,96430.81
2018-11-05T19:24:14.791Z,96427.36
2018-11-05T19:26:45.702Z,96427.33
2018-11-05T19:29:16.954Z,96421.14
2018-11-05T19:31:48.720Z,96420.10
2018-11-05T19:34:19.987Z,96418.77
2018-11-05T19:36:50.923Z,96416.96
2018-11-05T19:39:22.097Z,96430.33
2018-11-05T19:41:53.467Z,96432.06
2018-11-05T19:44:24.339Z,96432.13
2018-11-05T19:46:56.095Z,96433.80
2018-11-05T19:49:27.315Z,96441.12
2018-11-05T19:51:58.515Z,96441.53
2018-11-05T19:54:29.488Z,96447.56
2018-11-05T19:57:00.420Z,96451.44
2018-11-05T19:59:31.357Z,96454.95
2018-11-05T20:02:02.223Z,96455.88
2018-11-05T20:04:33.168Z,96456.76
2018-11-05T20:07:04.923Z,96458.44
2018-11-05T20:09:35.840Z,96455.72
2018-11-05T20:12:07.322Z,96468.16
2018-11-05T20:14:38.501Z,96468.10
2018-11-05T20:17:09.504Z,96459.90
2018-11-05T20:19:40.540Z,96469.34
2018-11-05T20:22:11.616Z,96463.36
2018-11-05T20:24:42.599Z,96462.48
2018-11-05T20:27:13.499Z,96456.00
2018-11-05T20:29:44.716Z,96467.63
2018-11-05T20:32:16.195Z,96462.92
2018-11-05T20:34:47.264Z,96469.80
2018-11-05T20:37:18.206Z,96464.25
2018-11-05T20:39:49.517Z,96461.70
2018-11-05T20:42:20.366Z,96465.16
2018-11-05T20:44:51.531Z,96462.25
2018-11-05T20:47:22.773Z,96474.31
2018-11-05T20:49:53.995Z,96477.38
2018-11-05T20:52:25.313Z,96481.73
2018-11-05T20:54:56.261Z,96479.19
2018-11-05T20:57:27.674Z,96483.50
2018-11-05T20:59:58.717Z,96477.06
2018-11-05T21:02:30.173Z,96474.93
2018-11-05T21:05:01.015Z,96482.68
2018-11-05T21:07:31.917Z,96489.14
2018-11-05T21:10:03.024Z,96476.72
2018-11-05T21:12:34.019Z,96481.86
2018-11-05T21:15:05.453Z,96480.55
2018-11-05T21:17:36.386Z,96481.86
2018-11-05T21:20:07.259Z,96478.84
2018-11-05T21:22:38.538Z,96468.94
2018-11-05T21:25:09.807Z,96467.25
2018-11-05T21:27:41.815Z,96468.97
2018-11-05T21:30:15.718Z,96473.28
2018-11-05T21:32:46.647Z,96474.13
2018-11-05T21:35:18.817Z,96480.59
2018-11-05T21:37:50.353Z,96480.16
2018-11-05T21:40:21.662Z,96485.30
2018-11-05T21:42:52.525Z,96476.30
2018-11-05T21:45:23.640Z,96471.58
2018-11-05T21:47:54.616Z,96471.59
2018-11-05T21:50:27.223Z,96472.86
2018-11-05T21:52:58.395Z,96471.13
2018-11-05T21:55:29.280Z,96468.94
2018-11-05T21:58:00.237Z,96471.53
2018-11-05T22:00:31.863Z,96471.13
2018-11-05T22:03:06.144Z,96479.31
2018-11-05T22:05:37.117Z,96477.14
2018-11-05T22:08:08.336Z,96481.84
2018-11-05T22:10:39.228Z,96484.88
2018-11-05T22:13:10.456Z,96478.86
2018-11-05T22:15:45.434Z,96473.70
2018-11-05T22:18:17.304Z,96475.00
2018-11-05T22:20:48.153Z,96471.55
2018-11-05T22:23:19.392Z,96478.43
2018-11-05T22:25:50.359Z,96481.44
2018-11-05T22:28:21.497Z,96475.42
2018-11-05T22:30:52.530Z,96487.02
2018-11-05T22:33:23.621Z,96481.88
2018-11-05T22:35:54.779Z,96489.61
2018-11-05T22:38:25.761Z,96483.58
2018-11-05T22:40:56.680Z,96485.73
2018-11-05T22:43:27.855Z,96491.74
2018-11-05T22:45:58.799Z,96491.73
2018-11-05T22:48:30.204Z,96500.29
2018-11-05T22:51:01.286Z,96499.00
2018-11-05T22:53:32.222Z,96502.44
2018-11-05T22:56:03.470Z,96501.14
2018-11-05T22:58:34.677Z,96504.13
2018-11-05T23:01:09.753Z,96502.41
2018-11-05T23:03:41.084Z,96499.88
2018-11-05T23:06:12.203Z,96500.74
2018-11-05T23:08:43.344Z,96498.57
2018-11-05T23:11:14.847Z,96510.55
2018-11-05T23:13:45.741Z,96503.70
2018-11-05T23:16:16.645Z,96506.70
2018-11-05T23:18:48.135Z,96497.67
2018-11-05T23:21:19.415Z,96495.57
2018-11-05T23:23:50.341Z,96501.59
2018-11-05T23:26:21.574Z,96505.92
2018-11-05T23:28:52.912Z,96511.89
2018-11-05T23:31:24.193Z,96507.20
2018-11-05T23:33:55.443Z,96506.34
2018-11-05T23:36:26.357Z,96508.02
2018-11-05T23:38:57.554Z,96511.89
2018-11-05T23:41:28.527Z,96511.88
2018-11-05T23:43:59.751Z,96507.12
2018-11-05T23:46:30.884Z,96509.69
2018-11-05T23:49:01.874Z,96511.80
2018-11-05T23:51:33.418Z,96515.66
2018-11-05T23:54:04.302Z,96511.80
2018-11-05T23:56:35.119Z,96512.66
2018-11-05T23:59:06.225Z,96513.09
